sensor_id;sensor_type;location;lat;lon;timestamp;P1;durP1;ratioP1;P2;durP2;ratioP2
48207;SDS011;33997;53.278;9.708;2023-03-18T00:01:14;6.03;;;2.17;;
48207;SDS011;33997;53.278;9.708;2023-03-18T00:03:40;7.43;;;2.22;;
48207;SDS011;33997;53.278;9.708;2023-03-18T00:06:10;3.75;;;1.95;;
48207;SDS011;33997;53.278;9.708;2023-03-18T00:08:38;6.78;;;2.20;;
48207;SDS011;33997;53.278;9.708;2023-03-18T00:11:05;4.65;;;1.98;;
48207;SDS011;33997;53.278;9.708;2023-03-18T00:13:32;6.75;;;2.20;;
48207;SDS011;33997;53.278;9.708;2023-03-18T00:15:59;4.05;;;1.92;;
48207;SDS011;33997;53.278;9.708;2023-03-18T00:18:25;6.53;;;2.08;;
48207;SDS011;33997;53.278;9.708;2023-03-18T00:20:51;4.88;;;1.95;;
48207;SDS011;33997;53.278;9.708;2023-03-18T00:23:17;3.35;;;1.75;;
48207;SDS011;33997;53.278;9.708;2023-03-18T00:25:42;4.13;;;2.08;;
48207;SDS011;33997;53.278;9.708;2023-03-18T00:28:11;4.60;;;2.25;;
48207;SDS011;33997;53.278;9.708;2023-03-18T00:30:38;3.20;;;1.60;;
48207;SDS011;33997;53.278;9.708;2023-03-18T00:33:05;5.63;;;1.92;;
48207;SDS011;33997;53.278;9.708;2023-03-18T00:35:31;6.22;;;2.30;;
48207;SDS011;33997;53.278;9.708;2023-03-18T00:37:57;4.82;;;2.30;;
48207;SDS011;33997;53.278;9.708;2023-03-18T00:40:24;4.32;;;1.98;;
48207;SDS011;33997;53.278;9.708;2023-03-18T00:42:54;6.13;;;2.20;;
48207;SDS011;33997;53.278;9.708;2023-03-18T00:45:31;4.00;;;1.88;;
48207;SDS011;33997;53.278;9.708;2023-03-18T00:48:00;7.65;;;2.47;;
48207;SDS011;33997;53.278;9.708;2023-03-18T00:50:25;8.15;;;2.40;;
48207;SDS011;33997;53.278;9.708;2023-03-18T00:52:51;4.72;;;1.92;;
48207;SDS011;33997;53.278;9.708;2023-03-18T00:55:17;4.07;;;1.90;;
48207;SDS011;33997;53.278;9.708;2023-03-18T00:57:42;4.25;;;1.88;;
48207;SDS011;33997;53.278;9.708;2023-03-18T01:00:08;5.50;;;2.22;;
48207;SDS011;33997;53.278;9.708;2023-03-18T01:02:35;4.32;;;2.22;;
48207;SDS011;33997;53.278;9.708;2023-03-18T01:05:00;5.28;;;2.08;;
48207;SDS011;33997;53.278;9.708;2023-03-18T01:07:26;5.50;;;2.38;;
48207;SDS011;33997;53.278;9.708;2023-03-18T01:09:51;4.93;;;2.20;;
48207;SDS011;33997;53.278;9.708;2023-03-18T01:12:18;4.38;;;2.05;;
48207;SDS011;33997;53.278;9.708;2023-03-18T01:14:44;6.85;;;2.40;;
48207;SDS011;33997;53.278;9.708;2023-03-18T01:17:09;5.38;;;2.30;;
48207;SDS011;33997;53.278;9.708;2023-03-18T01:19:35;4.00;;;2.30;;
48207;SDS011;33997;53.278;9.708;2023-03-18T01:22:01;7.30;;;2.40;;
48207;SDS011;33997;53.278;9.708;2023-03-18T01:24:27;4.22;;;2.30;;
48207;SDS011;33997;53.278;9.708;2023-03-18T01:26:53;4.95;;;2.17;;
48207;SDS011;33997;53.278;9.708;2023-03-18T01:29:19;4.78;;;2.25;;
48207;SDS011;33997;53.278;9.708;2023-03-18T01:31:46;6.70;;;2.38;;
48207;SDS011;33997;53.278;9.708;2023-03-18T01:34:12;6.43;;;2.13;;
48207;SDS011;33997;53.278;9.708;2023-03-18T01:36:38;4.78;;;2.30;;
48207;SDS011;33997;53.278;9.708;2023-03-18T01:39:04;5.38;;;2.33;;
48207;SDS011;33997;53.278;9.708;2023-03-18T01:41:31;7.38;;;2.20;;
48207;SDS011;33997;53.278;9.708;2023-03-18T01:43:56;6.55;;;2.80;;
48207;SDS011;33997;53.278;9.708;2023-03-18T01:49:03;5.00;;;2.40;;
48207;SDS011;33997;53.278;9.708;2023-03-18T01:51:36;10.73;;;2.58;;
48207;SDS011;33997;53.278;9.708;2023-03-18T01:54:04;5.63;;;2.47;;
48207;SDS011;33997;53.278;9.708;2023-03-18T01:56:32;6.72;;;2.38;;
48207;SDS011;33997;53.278;9.708;2023-03-18T01:59:01;4.95;;;2.20;;
48207;SDS011;33997;53.278;9.708;2023-03-18T02:01:29;9.35;;;2.30;;
48207;SDS011;33997;53.278;9.708;2023-03-18T02:04:00;7.43;;;2.22;;
48207;SDS011;33997;53.278;9.708;2023-03-18T02:06:28;5.45;;;2.55;;
48207;SDS011;33997;53.278;9.708;2023-03-18T02:08:53;5.47;;;2.45;;
48207;SDS011;33997;53.278;9.708;2023-03-18T02:11:19;7.00;;;2.55;;
48207;SDS011;33997;53.278;9.708;2023-03-18T02:13:47;6.85;;;2.90;;
48207;SDS011;33997;53.278;9.708;2023-03-18T02:16:18;5.00;;;2.80;;
48207;SDS011;33997;53.278;9.708;2023-03-18T02:18:51;6.75;;;2.90;;
48207;SDS011;33997;53.278;9.708;2023-03-18T02:24:44;4.55;;;2.42;;
48207;SDS011;33997;53.278;9.708;2023-03-18T02:27:43;8.02;;;2.90;;
48207;SDS011;33997;53.278;9.708;2023-03-18T02:30:14;6.30;;;2.75;;
48207;SDS011;33997;53.278;9.708;2023-03-18T02:32:43;5.35;;;2.70;;
48207;SDS011;33997;53.278;9.708;2023-03-18T02:35:10;4.78;;;2.75;;
48207;SDS011;33997;53.278;9.708;2023-03-18T02:37:37;10.02;;;3.13;;
48207;SDS011;33997;53.278;9.708;2023-03-18T02:42:46;6.13;;;3.13;;
48207;SDS011;33997;53.278;9.708;2023-03-18T02:45:16;9.55;;;3.70;;
48207;SDS011;33997;53.278;9.708;2023-03-18T02:48:02;7.22;;;2.90;;
48207;SDS011;33997;53.278;9.708;2023-03-18T02:50:32;10.82;;;3.17;;
48207;SDS011;33997;53.278;9.708;2023-03-18T02:52:58;6.50;;;3.38;;
48207;SDS011;33997;53.278;9.708;2023-03-18T02:55:26;8.32;;;3.55;;
48207;SDS011;33997;53.278;9.708;2023-03-18T02:57:51;8.68;;;3.63;;
48207;SDS011;33997;53.278;9.708;2023-03-18T03:00:17;6.78;;;3.70;;
48207;SDS011;33997;53.278;9.708;2023-03-18T03:02:42;9.23;;;3.72;;
48207;SDS011;33997;53.278;9.708;2023-03-18T03:05:09;7.65;;;3.75;;
48207;SDS011;33997;53.278;9.708;2023-03-18T03:07:34;7.80;;;3.58;;
48207;SDS011;33997;53.278;9.708;2023-03-18T03:10:01;8.45;;;3.75;;
48207;SDS011;33997;53.278;9.708;2023-03-18T03:12:28;7.28;;;3.83;;
48207;SDS011;33997;53.278;9.708;2023-03-18T03:14:54;8.98;;;3.95;;
48207;SDS011;33997;53.278;9.708;2023-03-18T03:17:20;9.05;;;4.13;;
48207;SDS011;33997;53.278;9.708;2023-03-18T03:19:46;10.75;;;4.30;;
48207;SDS011;33997;53.278;9.708;2023-03-18T03:22:12;8.20;;;4.03;;
48207;SDS011;33997;53.278;9.708;2023-03-18T03:24:37;8.98;;;4.32;;
48207;SDS011;33997;53.278;9.708;2023-03-18T03:27:04;9.35;;;4.38;;
48207;SDS011;33997;53.278;9.708;2023-03-18T03:29:30;8.55;;;4.85;;
48207;SDS011;33997;53.278;9.708;2023-03-18T03:31:56;8.60;;;4.78;;
48207;SDS011;33997;53.278;9.708;2023-03-18T03:34:21;10.18;;;5.28;;
48207;SDS011;33997;53.278;9.708;2023-03-18T03:36:47;9.10;;;5.28;;
48207;SDS011;33997;53.278;9.708;2023-03-18T03:39:13;9.15;;;4.82;;
48207;SDS011;33997;53.278;9.708;2023-03-18T03:41:38;10.45;;;5.00;;
48207;SDS011;33997;53.278;9.708;2023-03-18T03:44:04;12.85;;;5.78;;
48207;SDS011;33997;53.278;9.708;2023-03-18T03:46:30;8.50;;;4.88;;
48207;SDS011;33997;53.278;9.708;2023-03-18T03:48:56;9.50;;;5.25;;
48207;SDS011;33997;53.278;9.708;2023-03-18T03:51:21;10.23;;;5.25;;
48207;SDS011;33997;53.278;9.708;2023-03-18T03:53:47;12.25;;;5.72;;
48207;SDS011;33997;53.278;9.708;2023-03-18T03:56:14;13.45;;;6.00;;
48207;SDS011;33997;53.278;9.708;2023-03-18T03:58:40;11.63;;;5.68;;
48207;SDS011;33997;53.278;9.708;2023-03-18T04:01:05;11.50;;;6.60;;
48207;SDS011;33997;53.278;9.708;2023-03-18T04:03:32;15.32;;;5.93;;
48207;SDS011;33997;53.278;9.708;2023-03-18T04:05:58;12.27;;;6.10;;
48207;SDS011;33997;53.278;9.708;2023-03-18T04:08:23;14.40;;;7.35;;
48207;SDS011;33997;53.278;9.708;2023-03-18T04:10:49;15.00;;;7.43;;
48207;SDS011;33997;53.278;9.708;2023-03-18T04:13:14;13.38;;;7.15;;
48207;SDS011;33997;53.278;9.708;2023-03-18T04:15:40;12.77;;;6.65;;
48207;SDS011;33997;53.278;9.708;2023-03-18T04:18:06;13.00;;;8.07;;
48207;SDS011;33997;53.278;9.708;2023-03-18T04:20:35;18.02;;;8.57;;
48207;SDS011;33997;53.278;9.708;2023-03-18T04:23:02;16.55;;;8.88;;
48207;SDS011;33997;53.278;9.708;2023-03-18T04:25:28;13.75;;;8.27;;
48207;SDS011;33997;53.278;9.708;2023-03-18T04:27:54;15.45;;;8.35;;
48207;SDS011;33997;53.278;9.708;2023-03-18T04:30:20;14.75;;;8.82;;
48207;SDS011;33997;53.278;9.708;2023-03-18T04:32:47;19.63;;;9.77;;
48207;SDS011;33997;53.278;9.708;2023-03-18T04:35:14;18.25;;;9.50;;
48207;SDS011;33997;53.278;9.708;2023-03-18T04:37:40;18.63;;;9.35;;
48207;SDS011;33997;53.278;9.708;2023-03-18T04:40:06;21.42;;;10.52;;
48207;SDS011;33997;53.278;9.708;2023-03-18T04:42:31;21.85;;;10.75;;
48207;SDS011;33997;53.278;9.708;2023-03-18T04:44:57;19.55;;;10.18;;
48207;SDS011;33997;53.278;9.708;2023-03-18T04:47:23;20.83;;;9.93;;
48207;SDS011;33997;53.278;9.708;2023-03-18T04:49:48;23.55;;;11.25;;
48207;SDS011;33997;53.278;9.708;2023-03-18T04:52:14;21.98;;;11.45;;
48207;SDS011;33997;53.278;9.708;2023-03-18T04:54:41;17.83;;;10.82;;
48207;SDS011;33997;53.278;9.708;2023-03-18T04:57:07;23.90;;;11.73;;
48207;SDS011;33997;53.278;9.708;2023-03-18T04:59:32;18.83;;;11.20;;
48207;SDS011;33997;53.278;9.708;2023-03-18T05:01:58;20.25;;;11.30;;
48207;SDS011;33997;53.278;9.708;2023-03-18T05:04:24;16.80;;;11.05;;
48207;SDS011;33997;53.278;9.708;2023-03-18T05:06:50;19.58;;;11.98;;
48207;SDS011;33997;53.278;9.708;2023-03-18T05:09:16;23.77;;;12.25;;
48207;SDS011;33997;53.278;9.708;2023-03-18T05:11:43;17.17;;;10.60;;
48207;SDS011;33997;53.278;9.708;2023-03-18T05:14:09;19.85;;;10.50;;
48207;SDS011;33997;53.278;9.708;2023-03-18T05:16:34;22.02;;;11.02;;
48207;SDS011;33997;53.278;9.708;2023-03-18T05:19:00;19.88;;;11.45;;
48207;SDS011;33997;53.278;9.708;2023-03-18T05:21:27;24.55;;;11.50;;
48207;SDS011;33997;53.278;9.708;2023-03-18T05:23:52;20.92;;;12.38;;
48207;SDS011;33997;53.278;9.708;2023-03-18T05:26:18;21.58;;;12.32;;
48207;SDS011;33997;53.278;9.708;2023-03-18T05:28:43;20.70;;;12.20;;
48207;SDS011;33997;53.278;9.708;2023-03-18T05:31:09;23.95;;;10.75;;
48207;SDS011;33997;53.278;9.708;2023-03-18T05:33:34;17.00;;;11.00;;
48207;SDS011;33997;53.278;9.708;2023-03-18T05:36:00;22.38;;;12.05;;
48207;SDS011;33997;53.278;9.708;2023-03-18T05:38:26;21.52;;;10.70;;
48207;SDS011;33997;53.278;9.708;2023-03-18T05:40:52;24.08;;;11.27;;
48207;SDS011;33997;53.278;9.708;2023-03-18T05:43:17;16.33;;;10.25;;
48207;SDS011;33997;53.278;9.708;2023-03-18T05:45:42;24.27;;;11.50;;
48207;SDS011;33997;53.278;9.708;2023-03-18T05:48:08;19.83;;;11.38;;
48207;SDS011;33997;53.278;9.708;2023-03-18T05:50:38;19.85;;;11.10;;
48207;SDS011;33997;53.278;9.708;2023-03-18T05:53:05;18.35;;;11.10;;
48207;SDS011;33997;53.278;9.708;2023-03-18T05:55:32;16.08;;;10.73;;
48207;SDS011;33997;53.278;9.708;2023-03-18T05:57:58;18.90;;;11.15;;
48207;SDS011;33997;53.278;9.708;2023-03-18T06:00:24;24.38;;;12.38;;
48207;SDS011;33997;53.278;9.708;2023-03-18T06:02:52;17.58;;;11.48;;
48207;SDS011;33997;53.278;9.708;2023-03-18T06:05:18;22.95;;;10.80;;
48207;SDS011;33997;53.278;9.708;2023-03-18T06:07:45;21.30;;;10.85;;
48207;SDS011;33997;53.278;9.708;2023-03-18T06:10:10;18.90;;;10.57;;
48207;SDS011;33997;53.278;9.708;2023-03-18T06:12:36;20.52;;;10.63;;
48207;SDS011;33997;53.278;9.708;2023-03-18T06:15:03;18.88;;;11.35;;
48207;SDS011;33997;53.278;9.708;2023-03-18T06:17:31;18.92;;;11.18;;
48207;SDS011;33997;53.278;9.708;2023-03-18T06:19:57;20.10;;;11.05;;
48207;SDS011;33997;53.278;9.708;2023-03-18T06:22:23;17.30;;;11.35;;
48207;SDS011;33997;53.278;9.708;2023-03-18T06:24:49;15.80;;;10.32;;
48207;SDS011;33997;53.278;9.708;2023-03-18T06:27:15;20.70;;;10.73;;
48207;SDS011;33997;53.278;9.708;2023-03-18T06:29:40;18.42;;;10.00;;
48207;SDS011;33997;53.278;9.708;2023-03-18T06:32:06;19.35;;;10.85;;
48207;SDS011;33997;53.278;9.708;2023-03-18T06:34:32;17.08;;;9.23;;
48207;SDS011;33997;53.278;9.708;2023-03-18T06:36:59;18.35;;;10.32;;
48207;SDS011;33997;53.278;9.708;2023-03-18T06:39:25;18.20;;;9.98;;
48207;SDS011;33997;53.278;9.708;2023-03-18T06:41:52;18.70;;;10.57;;
48207;SDS011;33997;53.278;9.708;2023-03-18T06:44:18;17.90;;;9.95;;
48207;SDS011;33997;53.278;9.708;2023-03-18T06:46:47;21.52;;;10.90;;
48207;SDS011;33997;53.278;9.708;2023-03-18T06:49:13;17.83;;;11.18;;
48207;SDS011;33997;53.278;9.708;2023-03-18T06:51:39;14.50;;;9.65;;
48207;SDS011;33997;53.278;9.708;2023-03-18T06:54:06;19.40;;;9.93;;
48207;SDS011;33997;53.278;9.708;2023-03-18T06:56:32;15.85;;;9.10;;
48207;SDS011;33997;53.278;9.708;2023-03-18T06:59:01;19.75;;;9.75;;
48207;SDS011;33997;53.278;9.708;2023-03-18T07:01:27;17.20;;;8.85;;
48207;SDS011;33997;53.278;9.708;2023-03-18T07:03:54;12.68;;;9.27;;
48207;SDS011;33997;53.278;9.708;2023-03-18T07:06:19;20.15;;;9.85;;
48207;SDS011;33997;53.278;9.708;2023-03-18T07:08:45;17.17;;;8.65;;
48207;SDS011;33997;53.278;9.708;2023-03-18T07:11:11;16.52;;;9.60;;
48207;SDS011;33997;53.278;9.708;2023-03-18T07:13:36;15.68;;;8.35;;
48207;SDS011;33997;53.278;9.708;2023-03-18T07:16:02;16.88;;;9.10;;
48207;SDS011;33997;53.278;9.708;2023-03-18T07:18:28;18.00;;;8.43;;
48207;SDS011;33997;53.278;9.708;2023-03-18T07:20:54;17.45;;;9.13;;
48207;SDS011;33997;53.278;9.708;2023-03-18T07:23:20;16.33;;;9.07;;
48207;SDS011;33997;53.278;9.708;2023-03-18T07:25:45;14.23;;;8.73;;
48207;SDS011;33997;53.278;9.708;2023-03-18T07:28:11;14.98;;;8.35;;
48207;SDS011;33997;53.278;9.708;2023-03-18T07:30:37;16.35;;;8.27;;
48207;SDS011;33997;53.278;9.708;2023-03-18T07:33:02;12.60;;;8.10;;
48207;SDS011;33997;53.278;9.708;2023-03-18T07:35:28;13.95;;;8.35;;
48207;SDS011;33997;53.278;9.708;2023-03-18T07:37:54;14.00;;;8.18;;
48207;SDS011;33997;53.278;9.708;2023-03-18T07:40:20;18.27;;;8.43;;
48207;SDS011;33997;53.278;9.708;2023-03-18T07:42:46;16.63;;;8.57;;
48207;SDS011;33997;53.278;9.708;2023-03-18T07:45:12;15.15;;;8.50;;
48207;SDS011;33997;53.278;9.708;2023-03-18T07:47:37;15.60;;;8.63;;
48207;SDS011;33997;53.278;9.708;2023-03-18T07:50:03;13.30;;;8.50;;
48207;SDS011;33997;53.278;9.708;2023-03-18T07:52:29;18.92;;;8.93;;
48207;SDS011;33997;53.278;9.708;2023-03-18T07:54:55;13.57;;;8.85;;
48207;SDS011;33997;53.278;9.708;2023-03-18T07:57:20;14.20;;;8.73;;
48207;SDS011;33997;53.278;9.708;2023-03-18T07:59:46;15.88;;;8.93;;
48207;SDS011;33997;53.278;9.708;2023-03-18T08:02:15;12.93;;;8.93;;
48207;SDS011;33997;53.278;9.708;2023-03-18T08:04:40;16.50;;;8.95;;
48207;SDS011;33997;53.278;9.708;2023-03-18T08:07:07;16.20;;;9.13;;
48207;SDS011;33997;53.278;9.708;2023-03-18T08:09:34;16.67;;;9.05;;
48207;SDS011;33997;53.278;9.708;2023-03-18T08:11:59;16.60;;;9.13;;
48207;SDS011;33997;53.278;9.708;2023-03-18T08:14:25;15.70;;;8.73;;
48207;SDS011;33997;53.278;9.708;2023-03-18T08:16:50;19.15;;;8.93;;
48207;SDS011;33997;53.278;9.708;2023-03-18T08:19:16;16.17;;;8.15;;
48207;SDS011;33997;53.278;9.708;2023-03-18T08:21:41;15.63;;;8.70;;
48207;SDS011;33997;53.278;9.708;2023-03-18T08:24:07;17.63;;;8.70;;
48207;SDS011;33997;53.278;9.708;2023-03-18T08:26:33;16.60;;;9.30;;
48207;SDS011;33997;53.278;9.708;2023-03-18T08:28:59;17.75;;;9.50;;
48207;SDS011;33997;53.278;9.708;2023-03-18T08:31:25;17.65;;;8.88;;
48207;SDS011;33997;53.278;9.708;2023-03-18T08:33:50;16.95;;;9.13;;
48207;SDS011;33997;53.278;9.708;2023-03-18T08:36:19;15.52;;;8.82;;
48207;SDS011;33997;53.278;9.708;2023-03-18T08:38:45;15.55;;;9.27;;
48207;SDS011;33997;53.278;9.708;2023-03-18T08:41:10;17.17;;;8.73;;
48207;SDS011;33997;53.278;9.708;2023-03-18T08:43:36;16.02;;;8.95;;
48207;SDS011;33997;53.278;9.708;2023-03-18T08:46:01;17.67;;;9.50;;
48207;SDS011;33997;53.278;9.708;2023-03-18T08:48:28;18.13;;;9.32;;
48207;SDS011;33997;53.278;9.708;2023-03-18T08:50:54;16.85;;;9.13;;
48207;SDS011;33997;53.278;9.708;2023-03-18T08:53:20;13.65;;;9.02;;
48207;SDS011;33997;53.278;9.708;2023-03-18T08:55:45;14.30;;;8.32;;
48207;SDS011;33997;53.278;9.708;2023-03-18T08:58:11;16.38;;;8.25;;
48207;SDS011;33997;53.278;9.708;2023-03-18T09:00:37;14.35;;;7.90;;
48207;SDS011;33997;53.278;9.708;2023-03-18T09:03:04;17.98;;;8.43;;
48207;SDS011;33997;53.278;9.708;2023-03-18T09:05:30;16.83;;;7.70;;
48207;SDS011;33997;53.278;9.708;2023-03-18T09:07:57;16.20;;;8.35;;
48207;SDS011;33997;53.278;9.708;2023-03-18T09:10:24;17.17;;;7.93;;
48207;SDS011;33997;53.278;9.708;2023-03-18T09:12:50;14.82;;;8.13;;
48207;SDS011;33997;53.278;9.708;2023-03-18T09:15:16;14.80;;;8.63;;
48207;SDS011;33997;53.278;9.708;2023-03-18T09:17:44;15.77;;;9.40;;
48207;SDS011;33997;53.278;9.708;2023-03-18T09:20:12;15.35;;;8.80;;
48207;SDS011;33997;53.278;9.708;2023-03-18T09:22:39;19.27;;;9.68;;
48207;SDS011;33997;53.278;9.708;2023-03-18T09:25:06;13.45;;;9.00;;
48207;SDS011;33997;53.278;9.708;2023-03-18T09:27:33;18.30;;;8.80;;
48207;SDS011;33997;53.278;9.708;2023-03-18T09:29:58;13.35;;;8.55;;
48207;SDS011;33997;53.278;9.708;2023-03-18T09:32:24;14.98;;;9.18;;
48207;SDS011;33997;53.278;9.708;2023-03-18T09:34:49;14.07;;;8.27;;
48207;SDS011;33997;53.278;9.708;2023-03-18T09:37:16;14.15;;;9.10;;
48207;SDS011;33997;53.278;9.708;2023-03-18T09:39:42;14.65;;;8.98;;
48207;SDS011;33997;53.278;9.708;2023-03-18T09:50:31;14.70;;;9.40;;
48207;SDS011;33997;53.278;9.708;2023-03-18T09:53:35;13.35;;;9.20;;
48207;SDS011;33997;53.278;9.708;2023-03-18T09:56:11;16.20;;;8.98;;
48207;SDS011;33997;53.278;9.708;2023-03-18T09:59:02;15.40;;;9.27;;
48207;SDS011;33997;53.278;9.708;2023-03-18T10:01:37;13.55;;;8.43;;
48207;SDS011;33997;53.278;9.708;2023-03-18T10:04:06;15.75;;;9.60;;
48207;SDS011;33997;53.278;9.708;2023-03-18T10:06:40;18.73;;;9.50;;
48207;SDS011;33997;53.278;9.708;2023-03-18T10:09:27;15.10;;;8.98;;
48207;SDS011;33997;53.278;9.708;2023-03-18T10:12:28;16.23;;;7.95;;
48207;SDS011;33997;53.278;9.708;2023-03-18T10:15:31;12.68;;;8.10;;
48207;SDS011;33997;53.278;9.708;2023-03-18T10:18:10;14.38;;;8.75;;
48207;SDS011;33997;53.278;9.708;2023-03-18T10:26:29;15.13;;;8.23;;
48207;SDS011;33997;53.278;9.708;2023-03-18T10:31:46;13.23;;;7.32;;
48207;SDS011;33997;53.278;9.708;2023-03-18T10:34:43;14.75;;;8.07;;
48207;SDS011;33997;53.278;9.708;2023-03-18T10:37:16;12.45;;;7.05;;
48207;SDS011;33997;53.278;9.708;2023-03-18T10:39:47;14.43;;;6.68;;
48207;SDS011;33997;53.278;9.708;2023-03-18T10:42:17;13.98;;;6.38;;
48207;SDS011;33997;53.278;9.708;2023-03-18T10:44:44;13.77;;;7.22;;
48207;SDS011;33997;53.278;9.708;2023-03-18T10:47:13;12.93;;;7.35;;
48207;SDS011;33997;53.278;9.708;2023-03-18T10:49:45;13.68;;;7.20;;
48207;SDS011;33997;53.278;9.708;2023-03-18T10:57:39;9.57;;;5.55;;
48207;SDS011;33997;53.278;9.708;2023-03-18T11:00:07;12.85;;;5.78;;
48207;SDS011;33997;53.278;9.708;2023-03-18T11:02:40;9.10;;;5.50;;
48207;SDS011;33997;53.278;9.708;2023-03-18T11:05:14;13.32;;;5.90;;
48207;SDS011;33997;53.278;9.708;2023-03-18T11:10:24;10.65;;;5.82;;
48207;SDS011;33997;53.278;9.708;2023-03-18T11:12:59;11.85;;;6.00;;
48207;SDS011;33997;53.278;9.708;2023-03-18T11:15:27;14.10;;;6.60;;
48207;SDS011;33997;53.278;9.708;2023-03-18T11:17:57;14.23;;;7.72;;
48207;SDS011;33997;53.278;9.708;2023-03-18T11:20:30;13.27;;;7.22;;
48207;SDS011;33997;53.278;9.708;2023-03-18T11:23:12;16.05;;;8.02;;
48207;SDS011;33997;53.278;9.708;2023-03-18T11:25:45;13.43;;;8.95;;
48207;SDS011;33997;53.278;9.708;2023-03-18T11:28:20;13.55;;;8.85;;
48207;SDS011;33997;53.278;9.708;2023-03-18T11:30:48;13.55;;;9.20;;
48207;SDS011;33997;53.278;9.708;2023-03-18T11:33:20;14.75;;;9.10;;
48207;SDS011;33997;53.278;9.708;2023-03-18T11:35:57;12.48;;;9.23;;
48207;SDS011;33997;53.278;9.708;2023-03-18T11:38:29;18.75;;;10.13;;
48207;SDS011;33997;53.278;9.708;2023-03-18T11:41:07;15.40;;;10.05;;
48207;SDS011;33997;53.278;9.708;2023-03-18T11:43:37;20.13;;;10.68;;
48207;SDS011;33997;53.278;9.708;2023-03-18T11:46:03;14.20;;;10.13;;
48207;SDS011;33997;53.278;9.708;2023-03-18T11:48:34;17.95;;;9.70;;
48207;SDS011;33997;53.278;9.708;2023-03-18T11:51:08;16.15;;;9.93;;
48207;SDS011;33997;53.278;9.708;2023-03-18T11:56:52;16.52;;;10.02;;
48207;SDS011;33997;53.278;9.708;2023-03-18T12:02:19;14.77;;;8.65;;
48207;SDS011;33997;53.278;9.708;2023-03-18T12:10:34;11.90;;;8.23;;
48207;SDS011;33997;53.278;9.708;2023-03-18T12:24:01;13.65;;;8.00;;
48207;SDS011;33997;53.278;9.708;2023-03-18T12:26:50;9.93;;;6.28;;
48207;SDS011;33997;53.278;9.708;2023-03-18T12:29:31;15.80;;;7.10;;
48207;SDS011;33997;53.278;9.708;2023-03-18T12:32:40;12.40;;;6.63;;
48207;SDS011;33997;53.278;9.708;2023-03-18T12:35:20;10.57;;;6.00;;
48207;SDS011;33997;53.278;9.708;2023-03-18T12:40:28;9.40;;;6.20;;
48207;SDS011;33997;53.278;9.708;2023-03-18T12:46:09;9.55;;;5.90;;
48207;SDS011;33997;53.278;9.708;2023-03-18T12:48:51;14.25;;;5.97;;
48207;SDS011;33997;53.278;9.708;2023-03-18T12:51:28;11.88;;;6.47;;
48207;SDS011;33997;53.278;9.708;2023-03-18T12:54:01;9.80;;;5.95;;
48207;SDS011;33997;53.278;9.708;2023-03-18T12:56:42;11.25;;;6.70;;
48207;SDS011;33997;53.278;9.708;2023-03-18T12:59:11;8.43;;;5.18;;
48207;SDS011;33997;53.278;9.708;2023-03-18T13:01:57;11.18;;;5.55;;
48207;SDS011;33997;53.278;9.708;2023-03-18T13:04:34;10.77;;;5.63;;
48207;SDS011;33997;53.278;9.708;2023-03-18T13:07:15;9.32;;;4.93;;
48207;SDS011;33997;53.278;9.708;2023-03-18T13:09:51;10.68;;;4.95;;
48207;SDS011;33997;53.278;9.708;2023-03-18T13:12:27;9.25;;;5.03;;
48207;SDS011;33997;53.278;9.708;2023-03-18T13:17:50;10.23;;;5.60;;
48207;SDS011;33997;53.278;9.708;2023-03-18T13:25:33;9.77;;;4.72;;
48207;SDS011;33997;53.278;9.708;2023-03-18T13:28:26;9.85;;;5.25;;
48207;SDS011;33997;53.278;9.708;2023-03-18T13:34:28;14.13;;;6.53;;
48207;SDS011;33997;53.278;9.708;2023-03-18T13:37:25;12.13;;;5.53;;
48207;SDS011;33997;53.278;9.708;2023-03-18T13:42:55;10.73;;;5.53;;
48207;SDS011;33997;53.278;9.708;2023-03-18T13:47:58;9.98;;;5.30;;
48207;SDS011;33997;53.278;9.708;2023-03-18T13:50:29;10.32;;;5.80;;
48207;SDS011;33997;53.278;9.708;2023-03-18T13:52:58;10.05;;;6.22;;
48207;SDS011;33997;53.278;9.708;2023-03-18T14:13:50;13.18;;;6.72;;
48207;SDS011;33997;53.278;9.708;2023-03-18T14:16:17;12.27;;;6.68;;
48207;SDS011;33997;53.278;9.708;2023-03-18T14:18:56;12.27;;;7.68;;
48207;SDS011;33997;53.278;9.708;2023-03-18T14:21:27;9.93;;;7.00;;
48207;SDS011;33997;53.278;9.708;2023-03-18T14:26:25;9.50;;;6.20;;
48207;SDS011;33997;53.278;9.708;2023-03-18T14:34:19;9.02;;;5.13;;
48207;SDS011;33997;53.278;9.708;2023-03-18T14:42:06;9.52;;;5.43;;
48207;SDS011;33997;53.278;9.708;2023-03-18T14:45:01;9.35;;;5.30;;
48207;SDS011;33997;53.278;9.708;2023-03-18T14:47:44;7.60;;;4.85;;
48207;SDS011;33997;53.278;9.708;2023-03-18T14:50:23;10.20;;;5.10;;
48207;SDS011;33997;53.278;9.708;2023-03-18T14:52:57;10.23;;;4.53;;
48207;SDS011;33997;53.278;9.708;2023-03-18T14:55:47;8.60;;;4.88;;
48207;SDS011;33997;53.278;9.708;2023-03-18T14:58:17;7.25;;;4.38;;
48207;SDS011;33997;53.278;9.708;2023-03-18T15:00:44;8.35;;;4.30;;
48207;SDS011;33997;53.278;9.708;2023-03-18T15:03:13;9.20;;;4.75;;
48207;SDS011;33997;53.278;9.708;2023-03-18T15:05:45;7.65;;;4.18;;
48207;SDS011;33997;53.278;9.708;2023-03-18T15:08:15;8.95;;;4.78;;
48207;SDS011;33997;53.278;9.708;2023-03-18T15:10:45;7.88;;;4.10;;
48207;SDS011;33997;53.278;9.708;2023-03-18T15:13:14;7.23;;;3.97;;
48207;SDS011;33997;53.278;9.708;2023-03-18T15:15:42;6.47;;;3.50;;
48207;SDS011;33997;53.278;9.708;2023-03-18T15:18:24;7.72;;;4.57;;
48207;SDS011;33997;53.278;9.708;2023-03-18T15:25:57;6.90;;;4.10;;
48207;SDS011;33997;53.278;9.708;2023-03-18T15:28:23;7.40;;;3.83;;
48207;SDS011;33997;53.278;9.708;2023-03-18T15:30:52;5.70;;;3.35;;
48207;SDS011;33997;53.278;9.708;2023-03-18T15:33:20;6.35;;;2.70;;
48207;SDS011;33997;53.278;9.708;2023-03-18T15:35:54;8.15;;;3.15;;
48207;SDS011;33997;53.278;9.708;2023-03-18T15:38:27;9.32;;;4.10;;
48207;SDS011;33997;53.278;9.708;2023-03-18T15:40:55;7.85;;;3.67;;
48207;SDS011;33997;53.278;9.708;2023-03-18T15:43:26;8.25;;;4.07;;
48207;SDS011;33997;53.278;9.708;2023-03-18T15:46:04;10.52;;;4.22;;
48207;SDS011;33997;53.278;9.708;2023-03-18T15:48:33;7.53;;;3.78;;
48207;SDS011;33997;53.278;9.708;2023-03-18T15:51:03;8.93;;;4.35;;
48207;SDS011;33997;53.278;9.708;2023-03-18T15:53:38;8.93;;;4.55;;
48207;SDS011;33997;53.278;9.708;2023-03-18T15:56:15;10.70;;;4.35;;
48207;SDS011;33997;53.278;9.708;2023-03-18T15:58:55;8.60;;;4.05;;
48207;SDS011;33997;53.278;9.708;2023-03-18T16:01:36;9.57;;;4.30;;
48207;SDS011;33997;53.278;9.708;2023-03-18T16:04:03;7.80;;;4.70;;
48207;SDS011;33997;53.278;9.708;2023-03-18T16:06:32;7.45;;;4.53;;
48207;SDS011;33997;53.278;9.708;2023-03-18T16:08:59;9.52;;;4.78;;
48207;SDS011;33997;53.278;9.708;2023-03-18T16:11:25;7.45;;;4.70;;
48207;SDS011;33997;53.278;9.708;2023-03-18T16:13:51;9.70;;;5.32;;
48207;SDS011;33997;53.278;9.708;2023-03-18T16:16:26;10.07;;;5.15;;
48207;SDS011;33997;53.278;9.708;2023-03-18T16:18:53;9.55;;;5.93;;
48207;SDS011;33997;53.278;9.708;2023-03-18T16:21:18;11.40;;;5.70;;
48207;SDS011;33997;53.278;9.708;2023-03-18T16:23:44;9.93;;;5.65;;
48207;SDS011;33997;53.278;9.708;2023-03-18T16:26:15;12.88;;;6.28;;
48207;SDS011;33997;53.278;9.708;2023-03-18T16:28:42;10.32;;;5.78;;
48207;SDS011;33997;53.278;9.708;2023-03-18T16:31:09;8.65;;;4.97;;
48207;SDS011;33997;53.278;9.708;2023-03-18T16:33:35;7.78;;;4.20;;
48207;SDS011;33997;53.278;9.708;2023-03-18T16:36:01;8.27;;;4.15;;
48207;SDS011;33997;53.278;9.708;2023-03-18T16:38:27;8.95;;;4.63;;
48207;SDS011;33997;53.278;9.708;2023-03-18T16:40:54;8.50;;;4.35;;
48207;SDS011;33997;53.278;9.708;2023-03-18T16:43:22;12.07;;;4.03;;
48207;SDS011;33997;53.278;9.708;2023-03-18T16:45:50;11.77;;;4.25;;